Huvudsida
METAR-TAF:

METAR-TAF

Flygplatser :

Niamey, Niger

latitud: 13-29N, longitud: 002-10E, höjd: 223 m

Aktuellt väderrapport

Denna rapport gjordes för 26 minuter sedan, klockan 01:00 UTC
Vind 6 kt från syd
Temperatur 31°C
Fuktighet 49%
Tryck 1009 hPa
Sikt 10 km eller mer
Inga moln under 1 500 m eller inga cumulonimbus

METAR: DRRN 230100Z 18006KT CAVOK 31/19 Q1009 NOSIG

Tid: 02:26 (01:26 UTC)

Väderprognos

Denna rapport gjordes för 2 timmar och 26 minuter sedan, klockan 23:00 UTC
Prognos gäller från 23 kl. 00 UTC till 24 kl. 06 UTC
Vind 10 kt från syd/sydväst
Sikt 10 km eller mer
Få moln på en höjd av 3300 ft
Sannolikhet 40% :
Temporärt
från 23 kl. 14 UTC till 23 kl. 19 UTC
Sikt: 4000 m
Spridda moln på en höjd av 4000 ft, Cumulonimbus.
Få moln på en höjd av 4500 ft, Cumulonimbus.

TAF: DRRN 222300Z 2300/2406 20010KT 9999 FEW033 PROB40 TEMPO 2314/2319 4000 TSSHRA SCT040CB FEW045CB

Aktuella väderrapporter och prognoser från 4000 flygplatser (METAR- och TAF-rapporter).

De tillgängliga stationerna syns som gula och röda prickar på kartan.

För musen över prickarna för att se namnen på stationerna.

Klicka sedan för att få väderrapporter och prognoser.

För att ändra kartan: Klicka på de gröna knapparna med ett svart kors på för att zooma in; den gröna knappen med ett streck på för att zooma ut; eller på de gröna pilarna för angränsande kartor.


METAR-TAF: